Time;durP1;ratioP1;P1;durP2;ratioP2;P2;SDS_P1;SDS_P2;PMS_P1;PMS_P2;Temp;Humidity;BMP_temperature;BMP_pressure;BME280_temperature;BME280_humidity;BME280_pressure;Samples;Min_cycle;Max_cycle;Signal;HPM_P1;HPM_P2
2021/08/11 00:00:32;;;;;;;5.35;4.40;;;;;;;29.82;59.17;100857.59;5113381;27;64381;-34
2021/08/11 00:03:02;;;;;;;11.32;4.70;;;;;;;29.91;60.19;100860.06;5111718;27;70163;-34
2021/08/11 00:05:33;;;;;;;6.22;4.95;;;;;;;29.96;60.61;100852.16;5118049;27;66651;-34
2021/08/11 00:08:04;;;;;;;6.55;4.90;;;;;;;30.02;63.26;100859.41;5112078;27;70066;-35
2021/08/11 00:10:35;;;;;;;11.37;5.60;;;;;;;30.07;62.89;100865.00;5116352;27;65244;-35
2021/08/11 00:13:06;;;;;;;13.13;5.28;;;;;;;30.12;61.74;100856.25;5033365;27;2309913;-35
2021/08/11 00:15:36;;;;;;;6.07;4.70;;;;;;;30.21;62.69;100866.59;5117117;27;65546;-35
2021/08/11 00:18:07;;;;;;;15.95;5.35;;;;;;;30.25;62.44;100861.59;5115715;27;70051;-35
2021/08/11 00:20:38;;;;;;;10.85;5.03;;;;;;;30.30;62.89;100867.19;5111932;27;65910;-35
2021/08/11 00:23:09;;;;;;;6.13;5.23;;;;;;;30.31;62.33;100866.13;5112654;27;69343;-35
2021/08/11 00:25:39;;;;;;;19.05;5.68;;;;;;;30.36;64.02;100870.91;5113597;27;66288;-35
2021/08/11 00:28:10;;;;;;;7.82;5.70;;;;;;;30.42;65.49;100879.00;5114413;27;70373;-35
2021/08/11 00:30:41;;;;;;;10.15;5.35;;;;;;;30.47;65.27;100883.75;5112969;27;66561;-35
2021/08/11 00:33:11;;;;;;;10.10;5.43;;;;;;;30.48;65.28;100877.31;5094411;27;69657;-35
2021/08/11 00:35:42;;;;;;;14.93;6.30;;;;;;;30.54;65.47;100883.72;5107531;27;65401;-39
2021/08/11 00:38:13;;;;;;;9.90;5.85;;;;;;;30.49;67.70;100876.25;5118342;27;69138;-35
2021/08/11 00:40:44;;;;;;;6.10;5.40;;;;;;;30.63;66.22;100879.69;5106292;27;65597;-35
2021/08/11 00:43:14;;;;;;;6.28;5.70;;;;;;;30.67;67.28;100887.19;5129105;27;69155;-35
2021/08/11 00:45:49;;;;;;;9.73;5.70;;;;;;;30.68;66.51;100891.53;5112802;27;66042;-35
2021/08/11 00:48:23;;;;;;;21.92;6.50;;;;;;;30.69;66.53;100895.88;5113851;27;69905;-35
2021/08/11 00:50:57;;;;;;;6.55;5.93;;;;;;;30.68;66.33;100898.84;5131157;27;65306;-35
2021/08/11 00:53:33;;;;;;;6.68;5.97;;;;;;;30.69;66.01;100890.47;5110428;27;69449;-33
2021/08/11 00:56:23;;;;;;;7.55;6.70;;;;;;;30.73;67.56;100897.13;5115944;27;65722;-34
2021/08/11 00:58:55;;;;;;;9.05;7.85;;;;;;;30.76;67.11;100900.41;5113221;27;70400;-33
2021/08/11 01:01:28;;;;;;;6.78;6.28;;;;;;;30.76;67.03;100903.13;5133328;27;65653;-35
2021/08/11 01:04:08;;;;;;;8.73;6.97;;;;;;;30.79;67.45;100906.25;5099753;27;70955;-34
2021/08/11 01:06:40;;;;;;;10.95;7.35;;;;;;;30.82;66.72;100905.03;5134408;27;66691;-34
2021/08/11 01:09:16;;;;;;;13.32;7.25;;;;;;;30.84;66.62;100905.59;5118146;27;69367;-35
2021/08/11 01:11:54;;;;;;;7.18;6.22;;;;;;;30.88;66.43;100909.56;5112766;27;66908;-35
2021/08/11 01:14:29;;;;;;;8.77;7.97;;;;;;;30.92;66.71;100913.47;5123531;27;69702;-35
2021/08/11 01:17:05;;;;;;;8.20;7.40;;;;;;;30.91;66.56;100903.69;5095997;27;65735;-35
2021/08/11 01:19:38;;;;;;;7.82;7.22;;;;;;;30.98;66.66;100909.91;5109757;27;70377;-33
2021/08/11 01:22:24;;;;;;;9.55;7.82;;;;;;;30.81;66.58;100876.25;5108402;27;65951;-34
2021/08/11 01:25:25;;;;;;;9.10;6.47;;;;;;;31.03;66.95;100910.03;5108882;27;70226;-34
2021/08/11 01:28:34;;;;;;;7.95;7.25;;;;;;;30.94;66.90;100892.41;5098631;27;66299;-34
2021/08/11 01:31:16;;;;;;;7.50;6.90;;;;;;;31.07;66.67;100914.00;5110342;27;70085;-34
2021/08/11 01:34:28;;;;;;;7.03;6.43;;;;;;;31.06;66.29;100901.47;5101046;27;66087;-34
2021/08/11 01:37:07;;;;;;;6.75;6.25;;;;;;;31.14;65.54;100912.03;5096135;27;70051;-35
2021/08/11 01:39:44;;;;;;;9.20;6.70;;;;;;;31.18;65.74;100915.16;5094157;27;65425;-36
2021/08/11 01:42:33;;;;;;;8.73;6.70;;;;;;;31.03;66.83;100887.53;5109697;27;69444;-35
2021/08/11 01:45:13;;;;;;;7.00;6.32;;;;;;;31.24;65.17;100911.56;5114032;27;67192;-37
2021/08/11 01:48:04;;;;;;;6.70;6.30;;;;;;;31.28;66.10;100925.47;5116007;27;70136;-36
2021/08/11 01:50:59;;;;;;;11.67;5.93;;;;;;;31.26;65.37;100916.72;5114851;27;65936;-34
2021/08/11 01:53:32;;;;;;;7.28;6.63;;;;;;;31.33;65.70;100925.66;5107759;27;70119;-34
2021/08/11 01:56:10;;;;;;;7.95;7.18;;;;;;;31.39;65.47;100913.94;5099217;27;66292;-43
2021/08/11 01:58:48;;;;;;;7.68;6.97;;;;;;;31.44;65.21;100918.69;5110807;27;69783;-36
2021/08/11 02:01:21;;;;;;;7.45;6.85;;;;;;;31.42;65.53;100913.47;5115690;27;66188;-35
2021/08/11 02:03:55;;;;;;;9.20;6.78;;;;;;;31.54;64.74;100925.28;5128548;27;70271;-35
2021/08/11 02:06:28;;;;;;;11.18;6.20;;;;;;;31.60;64.73;100926.25;5113266;27;65324;-36
2021/08/11 02:09:12;;;;;;;12.10;6.72;;;;;;;31.65;64.56;100931.00;5103551;27;70401;-35
2021/08/11 02:11:45;;;;;;;7.22;6.63;;;;;;;31.67;64.66;100923.47;5108750;27;64603;-35
2021/08/11 02:14:16;;;;;;;;;;;;;;;31.48;65.37;100925.31;5113206;27;70247;-36
2021/08/11 02:16:50;;;;;;;8.13;5.93;;;;;;;31.70;64.40;100925.72;5094718;27;65660;-36
2021/08/11 02:19:24;;;;;;;7.22;6.65;;;;;;;31.77;64.64;100935.47;5114104;27;69446;-36
2021/08/11 02:21:56;;;;;;;7.18;6.57;;;;;;;31.79;64.28;100927.09;5081492;27;65487;-36
2021/08/11 02:24:30;;;;;;;7.32;6.30;;;;;;;31.85;64.25;100926.19;5110162;27;69459;-36
2021/08/11 02:27:24;;;;;;;10.60;6.45;;;;;;;31.91;63.76;100930.75;5108060;27;66408;-37
2021/08/11 02:30:14;;;;;;;9.40;6.20;;;;;;;31.87;64.15;100934.91;5093269;27;70728;-37
2021/08/11 02:33:03;;;;;;;7.00;6.25;;;;;;;31.99;63.45;100944.00;5120498;27;64922;-35
2021/08/11 02:35:48;;;;;;;6.65;6.22;;;;;;;31.85;63.56;100915.34;5105878;27;70269;-35
2021/08/11 02:38:34;;;;;;;7.20;6.60;;;;;;;32.07;63.22;100933.88;5109033;27;66242;-35
2021/08/11 02:41:06;;;;;;;10.52;6.45;;;;;;;32.09;63.50;100942.63;5108204;27;70205;-35
2021/08/11 02:44:02;;;;;;;6.95;6.47;;;;;;;32.15;63.12;100939.00;5108032;27;65961;-35
2021/08/11 02:46:39;;;;;;;6.88;6.20;;;;;;;32.17;63.25;100950.47;5114233;27;70323;-36
2021/08/11 02:49:26;;;;;;;6.53;6.05;;;;;;;32.14;63.12;100940.06;5111717;27;66300;-35
2021/08/11 02:52:02;;;;;;;9.23;6.75;;;;;;;32.20;63.07;100939.16;5109693;27;69029;-34
2021/08/11 02:54:38;;;;;;;10.88;6.85;;;;;;;32.23;62.81;100931.41;5103513;27;65442;-36
2021/08/11 02:57:12;;;;;;;11.88;6.30;;;;;;;32.25;62.58;100926.56;5107662;27;70140;-36
2021/08/11 02:59:45;;;;;;;6.72;6.07;;;;;;;32.28;62.62;100922.56;5088479;27;65973;-36
2021/08/11 03:02:16;;;;;;;;;;;;;;;32.07;63.49;100923.88;5093447;27;69902;-35
2021/08/11 03:04:48;;;;;;;13.80;6.93;;;;;;;32.28;62.43;100933.41;5092358;27;66737;-35
2021/08/11 03:07:23;;;;;;;9.75;6.43;;;;;;;32.29;62.74;100926.94;5112129;27;70600;-35
2021/08/11 03:09:56;;;;;;;7.28;6.30;;;;;;;32.28;62.50;100925.28;5100093;27;65432;-35
2021/08/11 03:12:28;;;;;;;7.35;6.80;;;;;;;32.34;62.78;100913.50;5111721;27;70202;-35
2021/08/11 03:15:02;;;;;;;8.63;6.53;;;;;;;32.36;62.31;100910.56;5113379;27;67073;-35
2021/08/11 03:17:36;;;;;;;7.75;6.30;;;;;;;32.40;62.63;100903.59;5105904;27;70210;-35
2021/08/11 03:20:10;;;;;;;13.63;6.50;;;;;;;32.35;62.45;100898.88;5091413;27;66785;-35
2021/08/11 03:22:42;;;;;;;7.70;7.13;;;;;;;32.40;62.32;100907.16;5109038;27;70061;-35
2021/08/11 03:25:17;;;;;;;8.30;7.47;;;;;;;32.42;62.19;100899.59;5109105;27;66636;-35
2021/08/11 03:27:53;;;;;;;14.30;7.43;;;;;;;32.43;62.28;100898.56;5105983;27;70454;-35
2021/08/11 03:30:28;;;;;;;9.77;6.57;;;;;;;32.46;61.99;100895.41;5114098;27;66612;-38
2021/08/11 03:33:00;;;;;;;9.15;6.68;;;;;;;32.46;62.44;100889.97;5089281;27;69925;-34
2021/08/11 03:35:32;;;;;;;7.78;7.25;;;;;;;32.50;61.87;100893.06;5115334;27;65773;-34
2021/08/11 03:38:05;;;;;;;7.55;6.82;;;;;;;32.52;61.63;100881.97;5113761;27;69989;-35
2021/08/11 03:40:37;;;;;;;6.65;5.97;;;;;;;32.53;61.67;100878.19;5110834;27;66980;-35
2021/08/11 03:43:13;;;;;;;6.50;6.10;;;;;;;32.52;61.50;100866.50;5088487;27;69477;-35
2021/08/11 03:45:45;;;;;;;10.25;6.80;;;;;;;32.55;61.82;100859.78;5093829;27;65484;-35
2021/08/11 03:48:19;;;;;;;7.65;6.95;;;;;;;32.54;61.42;100861.69;5103544;27;70073;-34
2021/08/11 03:50:51;;;;;;;9.88;6.72;;;;;;;32.58;61.48;100865.56;5107450;27;65818;-35
2021/08/11 03:53:22;;;;;;;9.85;7.63;;;;;;;32.59;61.45;100878.09;5112286;27;68853;-35
2021/08/11 03:55:56;;;;;;;7.97;7.38;;;;;;;32.58;61.45;100875.63;5112307;27;66294;-35
2021/08/11 03:58:31;;;;;;;11.73;7.22;;;;;;;32.57;61.51;100873.94;5111651;27;70595;-35
2021/08/11 04:01:03;;;;;;;7.72;7.10;;;;;;;32.57;61.41;100871.22;5105668;27;65469;-35
2021/08/11 04:03:34;;;;;;;;;;;;;;;32.31;61.90;100865.09;5112852;27;70224;-35
2021/08/11 04:06:05;;;;;;;9.65;6.70;;;;;;;32.53;60.88;100867.34;5109140;27;67133;-35
2021/08/11 04:08:36;;;;;;;9.63;6.78;;;;;;;32.52;61.34;100861.06;5113715;27;69927;-35
2021/08/11 04:11:07;;;;;;;6.50;6.10;;;;;;;32.45;61.12;100861.13;5111825;27;66068;-35
2021/08/11 04:13:39;;;;;;;7.00;6.50;;;;;;;32.44;61.45;100862.19;5112025;27;69907;-34
2021/08/11 04:16:15;;;;;;;6.38;5.97;;;;;;;32.27;61.33;100831.34;5110777;27;66221;-34
2021/08/11 04:18:47;;;;;;;6.72;5.97;;;;;;;32.34;61.49;100859.22;5110226;27;70069;-34
2021/08/11 04:21:17;;;;;;;;;;;;;;;32.13;61.94;100862.44;5094849;27;65679;-36
2021/08/11 04:23:48;;;;;;;5.82;5.45;;;;;;;32.32;61.78;100860.50;5112714;27;70278;-35
2021/08/11 04:26:21;;;;;;;9.27;6.40;;;;;;;32.37;61.99;100864.16;5106068;27;66699;-35
2021/08/11 04:28:52;;;;;;;6.83;6.43;;;;;;;32.36;61.81;100846.22;5112970;27;69497;-35
2021/08/11 04:31:26;;;;;;;8.18;7.47;;;;;;;32.42;61.80;100839.06;5106163;27;66501;-35
2021/08/11 04:33:56;;;;;;;8.95;8.20;;;;;;;32.43;61.82;100835.25;5107060;27;70517;-36
2021/08/11 04:36:27;;;;;;;8.25;7.65;;;;;;;32.37;61.64;100809.88;5107719;27;66034;-35
2021/08/11 04:39:03;;;;;;;7.90;7.30;;;;;;;32.55;61.38;100822.59;5108410;27;69197;-36
2021/08/11 04:41:34;;;;;;;8.07;7.10;;;;;;;32.60;61.13;100824.63;5109396;27;65188;-35
2021/08/11 04:44:10;;;;;;;9.10;7.53;;;;;;;32.65;61.50;100822.00;5109883;27;70297;-35
2021/08/11 04:46:46;;;;;;;9.52;7.45;;;;;;;32.67;61.57;100814.47;5112310;27;66656;-36
2021/08/11 04:49:17;;;;;;;9.32;8.02;;;;;;;32.70;61.89;100816.69;5114177;27;70124;-35
2021/08/11 04:51:49;;;;;;;8.18;7.10;;;;;;;32.75;62.47;100824.16;5106941;27;66228;-35
2021/08/11 04:54:21;;;;;;;16.75;7.15;;;;;;;32.72;62.85;100806.44;5104975;27;70195;-37
2021/08/11 04:56:52;;;;;;;11.60;7.35;;;;;;;32.63;61.95;100792.38;5107348;27;65975;-33
2021/08/11 04:59:23;;;;;;;15.00;7.93;;;;;;;32.54;60.14;100801.94;5113603;27;69835;-34
2021/08/11 05:01:59;;;;;;;11.45;6.70;;;;;;;32.37;58.35;100793.59;5100128;27;66611;-34
2021/08/11 05:04:30;;;;;;;10.80;5.95;;;;;;;32.26;57.21;100795.25;5106672;27;69914;-36
2021/08/11 05:07:05;;;;;;;11.20;5.97;;;;;;;32.17;56.42;100793.06;5112814;27;66133;-35
2021/08/11 05:09:37;;;;;;;16.05;5.43;;;;;;;32.01;54.15;100784.53;5109357;27;71048;-34
2021/08/11 05:12:13;;;;;;;6.90;5.30;;;;;;;31.90;53.86;100782.56;5109026;27;65561;-36
2021/08/11 05:14:48;;;;;;;12.70;6.22;;;;;;;31.79;52.15;100780.66;5100985;27;70507;-34
2021/08/11 05:17:23;;;;;;;9.93;5.65;;;;;;;31.62;51.50;100769.56;5101675;27;65301;-34
2021/08/11 05:19:55;;;;;;;7.00;5.28;;;;;;;31.46;51.11;100753.94;5105018;27;70266;-34
2021/08/11 05:22:28;;;;;;;12.20;4.68;;;;;;;31.32;50.03;100769.50;5103229;27;66415;-35
2021/08/11 05:24:59;;;;;;;9.18;5.20;;;;;;;31.31;50.77;100768.66;5090639;27;69791;-34
2021/08/11 05:27:32;;;;;;;10.00;5.18;;;;;;;31.29;49.48;100764.53;5107227;27;65186;-34
2021/08/11 05:30:05;;;;;;;11.25;5.22;;;;;;;31.05;48.86;100715.59;5104462;27;68844;-34
2021/08/11 05:32:42;;;;;;;5.10;4.70;;;;;;;31.27;47.13;100744.97;5105905;27;66674;-34
2021/08/11 05:35:18;;;;;;;5.30;4.43;;;;;;;31.27;46.84;100744.97;5103326;27;70260;-36
2021/08/11 05:37:55;;;;;;;5.07;4.57;;;;;;;31.22;45.36;100758.34;5089233;27;66047;-34
2021/08/11 05:40:28;;;;;;;7.40;4.13;;;;;;;31.20;45.11;100761.28;5102395;27;69632;-35
2021/08/11 05:43:03;;;;;;;6.88;4.25;;;;;;;31.16;45.84;100763.63;5107644;27;66657;-34
2021/08/11 05:45:45;;;;;;;6.78;4.30;;;;;;;31.13;44.41;100755.94;5101734;27;70660;-36
2021/08/11 05:48:21;;;;;;;4.32;4.03;;;;;;;31.14;43.72;100743.22;5099081;27;66578;-36
2021/08/11 05:50:54;;;;;;;5.53;4.22;;;;;;;31.15;44.99;100753.03;5103962;27;70109;-36
2021/08/11 05:53:26;;;;;;;4.47;4.00;;;;;;;31.06;43.18;100746.22;5102449;27;66079;-35
2021/08/11 05:55:57;;;;;;;5.03;3.63;;;;;;;31.03;43.89;100755.63;5106836;27;69925;-35
2021/08/11 05:58:29;;;;;;;4.28;3.90;;;;;;;31.05;42.89;100775.19;5106287;27;66207;-35
2021/08/11 06:01:05;;;;;;;4.40;4.10;;;;;;;31.03;42.32;100769.16;5103252;27;70288;-35
2021/08/11 06:03:37;;;;;;;4.18;3.88;;;;;;;31.02;42.49;100759.41;5104242;27;66685;-36
2021/08/11 06:06:18;;;;;;;3.90;3.60;;;;;;;30.99;41.73;100754.44;5090608;27;70144;-36
2021/08/11 06:08:52;;;;;;;4.22;3.92;;;;;;;30.96;41.76;100744.03;5103747;27;66486;-35
2021/08/11 06:11:27;;;;;;;4.03;3.72;;;;;;;30.92;40.94;100742.81;5102752;27;70172;-35
2021/08/11 06:14:02;;;;;;;3.67;3.38;;;;;;;30.88;41.21;100741.63;5108578;27;66072;-35
2021/08/11 06:16:36;;;;;;;3.60;3.40;;;;;;;30.84;40.52;100740.41;5108831;27;69752;-34
2021/08/11 06:19:09;;;;;;;3.47;3.28;;;;;;;30.85;40.89;100742.09;5105674;27;66136;-36
2021/08/11 06:21:43;;;;;;;3.50;3.30;;;;;;;30.81;41.22;100757.09;5105357;27;70051;-35
2021/08/11 06:24:18;;;;;;;3.90;3.60;;;;;;;30.75;41.10;100747.13;5107787;27;66336;-35
2021/08/11 06:26:51;;;;;;;3.50;3.30;;;;;;;30.77;40.13;100745.03;5104513;27;69641;-35
2021/08/11 06:29:23;;;;;;;3.47;3.28;;;;;;;30.71;40.50;100753.00;5109887;27;65411;-36
2021/08/11 06:31:54;;;;;;;6.70;3.85;;;;;;;30.69;42.88;100749.69;5106354;27;70079;-35
2021/08/11 06:34:32;;;;;;;7.88;3.40;;;;;;;30.76;43.93;100759.63;5105275;27;66007;-36
2021/08/11 06:37:05;;;;;;;8.45;3.50;;;;;;;30.75;43.73;100766.09;5109347;27;70093;-35
2021/08/11 06:39:37;;;;;;;5.72;3.60;;;;;;;30.69;43.30;100749.69;5105881;27;66872;-35
2021/08/11 06:42:10;;;;;;;3.60;3.30;;;;;;;30.67;43.00;100757.22;5111152;27;70556;-36
2021/08/11 06:44:58;;;;;;;3.40;3.10;;;;;;;30.64;42.89;100759.53;5111058;27;65430;-36
2021/08/11 06:47:31;;;;;;;3.53;3.33;;;;;;;30.59;42.88;100749.38;5107938;27;70585;-35
2021/08/11 06:50:07;;;;;;;3.50;3.30;;;;;;;30.58;42.36;100736.03;5103709;27;66353;-38
2021/08/11 06:52:39;;;;;;;3.58;3.28;;;;;;;30.55;41.99;100731.06;5112798;27;70511;-34
2021/08/11 06:55:17;;;;;;;3.35;3.15;;;;;;;30.55;41.24;100734.59;5089375;27;65713;-36
2021/08/11 06:57:51;;;;;;;3.30;3.10;;;;;;;30.49;41.20;100743.63;5101194;27;70529;-35
2021/08/11 07:00:27;;;;;;;3.20;2.95;;;;;;;30.47;41.12;100751.94;5113580;27;66317;-36
2021/08/11 07:02:59;;;;;;;3.20;2.88;;;;;;;30.43;41.05;100764.28;5085423;27;70652;-35
2021/08/11 07:05:32;;;;;;;2.80;2.60;;;;;;;30.42;41.27;100778.00;5110061;27;65611;-37
2021/08/11 07:08:06;;;;;;;4.50;2.55;;;;;;;30.28;40.91;100775.44;5101214;27;69769;-34
2021/08/11 07:10:39;;;;;;;2.95;2.75;;;;;;;30.37;40.36;100802.19;5109534;27;66238;-36
2021/08/11 07:13:11;;;;;;;2.33;2.13;;;;;;;30.33;40.08;100798.28;5108099;27;70288;-35
2021/08/11 07:15:44;;;;;;;4.55;2.33;;;;;;;30.32;40.37;100807.47;5110039;27;66320;-35
2021/08/11 07:18:18;;;;;;;2.65;2.45;;;;;;;30.28;40.28;100797.06;5114475;27;70847;-36
2021/08/11 07:20:56;;;;;;;1.75;1.65;;;;;;;30.28;40.32;100801.63;5102395;27;66666;-34
2021/08/11 07:23:27;;;;;;;1.90;1.80;;;;;;;30.27;40.22;100802.69;5108484;27;70491;-36
2021/08/11 07:26:08;;;;;;;4.10;2.30;;;;;;;30.23;40.18;100796.91;5105925;27;66108;-37
2021/08/11 07:28:41;;;;;;;2.17;2.08;;;;;;;30.12;40.40;100765.09;5107576;27;70206;-37
2021/08/11 07:31:16;;;;;;;5.50;2.17;;;;;;;30.19;40.17;100779.41;5110981;27;65815;-36
2021/08/11 07:34:14;;;;;;;2.10;2.00;;;;;;;30.18;40.20;100780.44;5109281;27;70056;-38
2021/08/11 07:36:45;;;;;;;9.15;2.03;;;;;;;30.18;39.97;100785.84;5112138;27;65180;-36
2021/08/11 07:39:19;;;;;;;15.82;2.45;;;;;;;30.21;39.93;100790.84;5108619;27;70517;-37
2021/08/11 07:41:51;;;;;;;16.33;2.60;;;;;;;30.22;41.00;100786.28;5091959;27;65661;-37
2021/08/11 07:44:28;;;;;;;6.85;2.65;;;;;;;30.21;41.33;100790.84;5110287;27;69996;-36
2021/08/11 07:47:04;;;;;;;11.68;2.63;;;;;;;30.20;41.04;100783.78;5095638;27;65578;-36
2021/08/11 07:49:40;;;;;;;12.18;3.03;;;;;;;30.22;42.69;100770.88;5112300;27;69476;-35
2021/08/11 07:52:16;;;;;;;10.75;2.70;;;;;;;30.23;42.09;100783.38;5107160;27;66206;-37
2021/08/11 07:54:52;;;;;;;6.25;2.47;;;;;;;30.22;41.85;100781.69;5104178;27;70551;-36
2021/08/11 07:57:25;;;;;;;4.75;2.42;;;;;;;30.22;42.04;100787.09;5111273;27;65928;-36
2021/08/11 08:00:02;;;;;;;4.57;2.65;;;;;;;30.26;45.31;100791.03;5112502;27;70115;-36
2021/08/11 08:02:42;;;;;;;3.95;2.88;;;;;;;30.31;46.46;100784.97;5096137;27;66196;-36
2021/08/11 08:05:18;;;;;;;5.15;3.00;;;;;;;30.31;46.87;100784.97;5112499;27;69768;-36
2021/08/11 08:07:49;;;;;;;21.20;2.72;;;;;;;30.30;45.29;100791.44;5109925;27;66473;-37
2021/08/11 08:10:26;;;;;;;13.48;3.58;;;;;;;30.25;44.70;100789.38;5110455;27;70081;-38
2021/08/11 08:12:57;;;;;;;5.45;3.45;;;;;;;30.25;44.41;100794.78;5108628;27;65493;-36
2021/08/11 08:15:33;;;;;;;8.65;3.05;;;;;;;30.21;43.42;100796.25;5105901;27;69932;-38
2021/08/11 08:18:06;;;;;;;;;;;;;;;29.83;43.75;100791.66;5109610;27;66437;-37
2021/08/11 08:20:44;;;;;;;11.68;2.75;;;;;;;30.09;43.10;100792.59;5094896;27;70109;-39
2021/08/11 08:23:15;;;;;;;7.70;2.88;;;;;;;30.10;46.18;100778.00;5109733;27;65425;-38
2021/08/11 08:25:49;;;;;;;3.42;3.13;;;;;;;30.19;48.59;100775.88;5112216;27;70065;-37
2021/08/11 08:28:23;;;;;;;3.00;2.80;;;;;;;30.22;48.82;100781.69;5102179;27;65723;-37
2021/08/11 08:30:55;;;;;;;2.80;2.60;;;;;;;30.18;47.21;100766.91;5107882;27;70217;-36
2021/08/11 08:33:28;;;;;;;3.08;2.78;;;;;;;30.15;46.93;100753.84;5093828;27;65752;-38
2021/08/11 08:36:03;;;;;;;3.80;3.22;;;;;;;30.11;46.64;100762.59;5097824;27;70467;-37
2021/08/11 08:38:37;;;;;;;6.28;2.95;;;;;;;30.00;45.50;100751.41;5094680;27;66707;-36
2021/08/11 08:41:12;;;;;;;3.85;2.42;;;;;;;30.04;46.03;100768.06;5106482;27;70349;-38
2021/08/11 08:43:46;;;;;;;22.23;2.80;;;;;;;30.02;47.41;100764.72;5108780;27;66202;-38
2021/08/11 08:46:28;;;;;;;18.55;2.90;;;;;;;30.00;46.64;100769.53;5081911;27;70247;-37
2021/08/11 08:49:02;;;;;;;7.85;2.70;;;;;;;29.99;45.91;100770.59;5105605;27;65874;-36
2021/08/11 08:51:50;;;;;;;19.23;2.65;;;;;;;29.56;46.02;100714.41;5113157;27;69555;-36
2021/08/11 08:54:28;;;;;;;33.42;2.97;;;;;;;29.93;45.45;100766.88;5109357;27;66340;-36
2021/08/11 08:56:59;;;;;;;36.20;2.72;;;;;;;29.88;45.57;100760.44;5095206;27;70438;-36
2021/08/11 08:59:39;;;;;;;35.70;2.75;;;;;;;29.79;44.93;100746.34;5111358;27;66728;-36
2021/08/11 09:02:14;;;;;;;21.42;2.55;;;;;;;29.84;45.09;100755.47;5093577;27;70080;-37
2021/08/11 09:04:46;;;;;;;26.85;3.03;;;;;;;29.81;44.97;100755.91;5107522;27;66808;-37
2021/08/11 09:07:20;;;;;;;33.58;3.30;;;;;;;29.79;45.38;100760.69;5111390;27;70015;-37
2021/08/11 09:09:52;;;;;;;26.17;3.20;;;;;;;29.77;44.95;100759.25;5078623;27;66243;-37
2021/08/11 09:12:24;;;;;;;28.38;3.05;;;;;;;29.79;45.49;100760.69;5094005;27;69357;-36
2021/08/11 09:14:56;;;;;;;43.28;3.28;;;;;;;29.89;46.71;100756.69;5108790;27;65971;-37
2021/08/11 09:17:39;;;;;;;42.30;3.28;;;;;;;29.93;46.91;100739.00;5112433;27;69994;-36
2021/08/11 09:20:12;;;;;;;25.27;3.10;;;;;;;30.16;48.07;100739.25;5107746;27;66555;-40
2021/08/11 09:22:48;;;;;;;15.45;4.13;;;;;;;30.20;53.08;100718.00;5110680;27;69511;-37
2021/08/11 09:25:22;;;;;;;12.80;2.95;;;;;;;30.40;52.96;100729.53;5110616;27;65509;-35
2021/08/11 09:27:53;;;;;;;28.15;3.13;;;;;;;30.47;53.87;100735.72;5105303;27;69343;-35
2021/08/11 09:30:26;;;;;;;13.43;3.30;;;;;;;30.64;54.50;100735.97;5107524;27;65886;-35
2021/08/11 09:33:04;;;;;;;29.17;3.85;;;;;;;30.63;55.85;100709.13;5113701;27;69863;-36
2021/08/11 09:35:38;;;;;;;18.45;3.88;;;;;;;30.84;55.54;100730.44;5108660;27;67053;-39
2021/08/11 09:38:15;;;;;;;19.38;3.42;;;;;;;30.93;58.11;100726.38;5105882;27;71070;-36
2021/08/11 09:40:54;;;;;;;15.45;3.70;;;;;;;31.00;57.52;100728.16;5106888;27;65649;-36
2021/08/11 09:43:35;;;;;;;22.75;3.90;;;;;;;31.06;58.57;100749.75;5124577;27;70598;-38
2021/08/11 09:46:14;;;;;;;11.23;4.57;;;;;;;31.11;57.30;100752.63;5106590;27;66847;-37
2021/08/11 09:48:48;;;;;;;8.85;4.40;;;;;;;31.16;57.70;100749.25;5106127;27;69956;-36
2021/08/11 09:51:21;;;;;;;9.38;5.03;;;;;;;31.19;58.21;100743.38;5127459;27;66387;-39
2021/08/11 09:53:55;;;;;;;6.75;5.80;;;;;;;31.23;58.19;100749.16;5101917;27;70250;-38
2021/08/11 09:56:36;;;;;;;12.63;6.07;;;;;;;31.22;59.51;100742.09;5105590;27;66319;-36
2021/08/11 09:59:07;;;;;;;20.48;6.82;;;;;;;31.23;58.52;100732.91;5111754;27;69400;-36
2021/08/11 10:01:41;;;;;;;11.13;6.07;;;;;;;31.27;58.83;100728.69;5103305;27;65523;-35
2021/08/11 10:04:14;;;;;;;15.43;6.15;;;;;;;31.24;60.58;100724.56;5110816;27;69426;-38
2021/08/11 10:06:51;;;;;;;16.50;5.97;;;;;;;31.04;61.59;100688.75;5113905;27;66589;-38
2021/08/11 10:09:26;;;;;;;10.93;5.78;;;;;;;31.30;61.03;100739.91;5108654;27;69896;-37
2021/08/11 10:12:00;;;;;;;18.27;5.57;;;;;;;31.10;60.80;100696.78;5110349;27;67012;-36
2021/08/11 10:14:37;;;;;;;10.55;5.90;;;;;;;31.20;61.17;100700.84;5093013;27;70407;-37
2021/08/11 10:17:09;;;;;;;5.85;4.95;;;;;;;31.31;61.63;100732.59;5108069;27;66310;-36
2021/08/11 10:19:44;;;;;;;10.45;5.35;;;;;;;31.28;61.56;100724.94;5113478;27;70605;-37
2021/08/11 10:22:20;;;;;;;10.68;5.47;;;;;;;31.25;62.10;100747.06;5108902;27;65515;-36
2021/08/11 10:24:56;;;;;;;6.93;5.20;;;;;;;31.23;62.26;100741.03;5102952;27;70413;-37
2021/08/11 10:27:33;;;;;;;7.90;5.72;;;;;;;31.08;62.54;100730.59;5113985;27;66282;-36
2021/08/11 10:30:07;;;;;;;5.55;4.95;;;;;;;31.15;63.06;100748.44;5111948;27;69454;-37
2021/08/11 10:32:38;;;;;;;7.90;5.40;;;;;;;31.14;62.06;100754.06;5113804;27;65393;-37
2021/08/11 10:35:09;;;;;;;5.35;4.95;;;;;;;31.11;62.56;100752.63;5112822;27;70753;-37
2021/08/11 10:37:41;;;;;;;5.68;5.22;;;;;;;31.04;62.50;100751.88;5107982;27;66550;-37
2021/08/11 10:40:12;;;;;;;5.60;5.20;;;;;;;31.09;62.52;100765.59;5104974;27;69931;-36
2021/08/11 10:42:53;;;;;;;5.15;4.85;;;;;;;31.07;62.63;100762.28;5109727;27;65690;-38
2021/08/11 10:45:26;;;;;;;5.57;5.10;;;;;;;30.89;62.62;100724.31;5107894;27;70134;-38
2021/08/11 10:47:58;;;;;;;5.03;4.72;;;;;;;31.07;62.77;100754.16;5109860;27;66300;-36
2021/08/11 10:50:45;;;;;;;7.43;5.03;;;;;;;30.97;63.53;100744.88;5111790;27;69017;-37
2021/08/11 10:53:16;;;;;;;6.45;5.90;;;;;;;31.03;62.89;100761.03;5108605;27;66734;-37
2021/08/11 10:55:49;;;;;;;6.18;5.72;;;;;;;30.94;62.49;100741.56;5107483;27;70050;-36
2021/08/11 10:58:43;;;;;;;6.68;6.18;;;;;;;30.90;63.64;100750.38;5122621;27;66532;-36
2021/08/11 11:01:34;;;;;;;5.90;5.57;;;;;;;30.93;63.68;100763.47;5105614;27;69339;-37
2021/08/11 11:04:06;;;;;;;6.38;5.88;;;;;;;30.80;62.80;100733.78;5101719;27;66103;-37
2021/08/11 11:07:11;;;;;;;6.03;5.60;;;;;;;30.60;64.57;100734.78;5090930;27;69730;-38
2021/08/11 11:09:44;;;;;;;6.30;5.72;;;;;;;30.94;63.63;100784.06;5100363;27;65742;-38
2021/08/11 11:12:17;;;;;;;10.38;6.30;;;;;;;30.96;63.94;100790.09;5107810;27;70006;-37
2021/08/11 11:15:00;;;;;;;6.47;6.07;;;;;;;30.93;63.57;100793.25;5107986;27;66081;-38
2021/08/11 11:17:36;;;;;;;7.22;6.55;;;;;;;30.91;63.55;100800.78;5090657;27;69858;-37
2021/08/11 11:20:09;;;;;;;6.97;6.47;;;;;;;30.90;63.84;100804.53;5105318;27;65374;-38
2021/08/11 11:22:39;;;;;;;7.38;6.72;;;;;;;30.89;63.80;100808.28;5102965;27;70437;-38
2021/08/11 11:25:14;;;;;;;8.00;6.80;;;;;;;30.91;64.07;100807.00;5107649;27;66555;-37
2021/08/11 11:27:54;;;;;;;10.50;6.30;;;;;;;30.89;63.88;100808.28;5108533;27;70072;-37
2021/08/11 11:30:28;;;;;;;7.05;6.38;;;;;;;30.92;64.25;100821.38;5089831;27;66522;-40
2021/08/11 11:33:17;;;;;;;9.07;6.65;;;;;;;30.86;64.51;100814.97;5106086;27;69759;-37
2021/08/11 11:36:21;;;;;;;9.48;7.22;;;;;;;30.82;65.79;100821.88;5107915;27;66179;-37
2021/08/11 11:39:09;;;;;;;10.13;6.88;;;;;;;30.89;65.31;100819.13;5107003;27;70215;-35
2021/08/11 11:42:12;;;;;;;6.57;5.35;;;;;;;30.93;66.17;100820.34;5094440;27;66738;-36
2021/08/11 11:44:57;;;;;;;12.85;5.57;;;;;;;31.04;65.29;100827.75;5107134;27;70362;-36
2021/08/11 11:47:44;;;;;;;4.60;4.20;;;;;;;31.07;65.09;100821.06;5111789;27;65635;-35
2021/08/11 11:50:21;;;;;;;6.28;3.78;;;;;;;31.11;65.97;100817.66;5109438;27;69999;-36
2021/08/11 11:52:59;;;;;;;5.45;3.55;;;;;;;30.95;66.04;100777.59;5109272;27;65793;-36
2021/08/11 11:55:36;;;;;;;4.97;3.50;;;;;;;30.99;65.91;100789.66;5109020;27;70110;-35
2021/08/11 11:58:13;;;;;;;8.05;2.65;;;;;;;30.87;66.63;100767.03;5109268;27;67193;-36
2021/08/11 12:01:05;;;;;;;3.92;2.53;;;;;;;31.22;66.17;100839.66;5109506;27;70359;-36
2021/08/11 12:03:45;;;;;;;2.00;1.90;;;;;;;31.29;66.40;100840.44;5107182;27;66405;-37